createdAt,value
2018-07-14T00:00:48.332Z,10.93
2018-07-14T00:01:51.872Z,10.25
2018-07-14T00:02:55.420Z,9.68
2018-07-14T00:03:58.931Z,12.07
2018-07-14T00:05:02.454Z,12.23
2018-07-14T00:06:06.156Z,12.60
2018-07-14T00:07:09.922Z,9.95
2018-07-14T00:08:13.486Z,9.25
2018-07-14T00:09:17.017Z,11.10
2018-07-14T00:10:20.529Z,12.55
2018-07-14T00:11:24.098Z,13.35
2018-07-14T00:12:27.650Z,12.82
2018-07-14T00:13:31.187Z,12.60
2018-07-14T00:14:34.737Z,11.73
2018-07-14T00:15:38.345Z,12.07
2018-07-14T00:16:41.881Z,13.03
2018-07-14T00:17:45.085Z,9.60
2018-07-14T00:18:48.630Z,12.45
2018-07-14T00:19:52.221Z,10.90
2018-07-14T00:20:55.787Z,12.80
2018-07-14T00:21:59.329Z,13.30
2018-07-14T00:23:02.806Z,10.43
2018-07-14T00:24:05.986Z,13.43
2018-07-14T00:25:09.822Z,11.90
2018-07-14T00:26:17.646Z,11.15
2018-07-14T00:27:21.174Z,14.65
2018-07-14T00:28:24.641Z,11.35
2018-07-14T00:29:28.189Z,15.65
2018-07-14T00:30:31.769Z,11.97
2018-07-14T00:31:35.321Z,10.10
2018-07-14T00:32:38.797Z,13.50
2018-07-14T00:33:42.346Z,11.97
2018-07-14T00:34:45.853Z,10.98
2018-07-14T00:35:49.398Z,13.45
2018-07-14T00:36:52.957Z,13.58
2018-07-14T00:37:56.518Z,13.13
2018-07-14T00:39:00.006Z,18.35
2018-07-14T00:40:03.543Z,12.85
2018-07-14T00:41:07.119Z,15.10
2018-07-14T00:42:10.744Z,15.45
2018-07-14T00:43:14.374Z,13.55
2018-07-14T00:44:17.914Z,13.15
2018-07-14T00:45:21.639Z,12.10
2018-07-14T00:46:25.204Z,15.45
2018-07-14T00:47:28.744Z,15.43
2018-07-14T00:48:32.254Z,12.35
2018-07-14T00:49:35.850Z,12.20
2018-07-14T00:50:39.327Z,13.00
2018-07-14T00:51:43.065Z,17.17
2018-07-14T00:52:47.441Z,16.62
2018-07-14T00:53:52.061Z,13.18
2018-07-14T00:54:56.566Z,15.65
2018-07-14T00:55:59.747Z,13.78
2018-07-14T00:57:03.229Z,17.75
2018-07-14T00:58:06.751Z,13.53
2018-07-14T00:59:10.273Z,14.43
2018-07-14T01:00:13.821Z,13.98
2018-07-14T01:01:17.321Z,15.88
2018-07-14T01:02:20.884Z,20.35
2018-07-14T01:03:24.377Z,19.55
2018-07-14T01:04:28.182Z,16.00
2018-07-14T01:05:31.665Z,14.58
2018-07-14T01:06:35.207Z,14.15
2018-07-14T01:07:38.687Z,14.95
2018-07-14T01:08:42.201Z,15.48
2018-07-14T01:09:45.705Z,14.28
2018-07-14T01:10:49.311Z,14.25
2018-07-14T01:11:52.902Z,15.93
2018-07-14T01:12:56.432Z,13.00
2018-07-14T01:13:59.961Z,13.15
2018-07-14T01:15:03.542Z,15.50
2018-07-14T01:16:07.169Z,14.63
2018-07-14T01:17:10.762Z,14.10
2018-07-14T01:18:14.281Z,19.00
2018-07-14T01:19:17.828Z,19.05
2018-07-14T01:20:21.587Z,16.05
2018-07-14T01:21:25.095Z,17.65
2018-07-14T01:22:28.713Z,17.05
2018-07-14T01:23:32.270Z,15.80
2018-07-14T01:24:35.794Z,14.55
2018-07-14T01:25:39.371Z,16.27
2018-07-14T01:26:44.734Z,14.50
2018-07-14T01:27:48.250Z,13.75
2018-07-14T01:28:51.876Z,14.68
2018-07-14T01:29:55.447Z,14.23
2018-07-14T01:30:59.074Z,12.28
2018-07-14T01:32:02.673Z,15.30
2018-07-14T01:33:06.321Z,17.62
2018-07-14T01:34:09.863Z,15.32
2018-07-14T01:35:13.430Z,18.52
2018-07-14T01:36:16.983Z,16.62
2018-07-14T01:37:20.494Z,16.67
2018-07-14T01:38:24.009Z,16.45
2018-07-14T01:39:27.565Z,20.48
2018-07-14T01:40:31.119Z,13.35
2018-07-14T01:41:34.618Z,15.88
2018-07-14T01:42:38.157Z,15.18
2018-07-14T01:43:41.967Z,15.40
2018-07-14T01:44:45.440Z,19.55
2018-07-14T01:45:48.927Z,14.07
2018-07-14T01:46:52.471Z,18.60
2018-07-14T01:47:56.061Z,13.50
2018-07-14T01:48:59.565Z,17.25
2018-07-14T01:50:03.124Z,18.35
2018-07-14T01:51:06.912Z,15.10
2018-07-14T01:52:10.443Z,17.60
2018-07-14T01:53:14.134Z,16.93
2018-07-14T01:54:17.612Z,15.68
2018-07-14T01:55:21.117Z,16.40
2018-07-14T01:56:24.640Z,15.95
2018-07-14T01:57:28.171Z,18.82
2018-07-14T01:58:31.733Z,16.95
2018-07-14T01:59:35.268Z,17.42
2018-07-14T02:00:38.750Z,16.10
2018-07-14T02:01:42.259Z,17.92
2018-07-14T02:02:45.832Z,18.37
2018-07-14T02:03:49.371Z,15.20
2018-07-14T02:04:52.540Z,16.25
2018-07-14T02:05:56.054Z,16.52
2018-07-14T02:06:59.623Z,18.82
2018-07-14T02:08:03.170Z,18.12
2018-07-14T02:09:06.756Z,17.00
2018-07-14T02:10:10.303Z,16.20
2018-07-14T02:11:13.921Z,15.72
2018-07-14T02:12:17.474Z,16.20
2018-07-14T02:13:21.063Z,17.90
2018-07-14T02:14:24.652Z,16.87
2018-07-14T02:15:28.159Z,16.23
2018-07-14T02:16:31.662Z,14.18
2018-07-14T02:17:35.182Z,15.70
2018-07-14T02:18:38.677Z,16.15
2018-07-14T02:19:43.145Z,18.50
2018-07-14T02:20:46.739Z,14.87
2018-07-14T02:21:50.269Z,18.32
2018-07-14T02:22:53.729Z,17.15
2018-07-14T02:23:57.241Z,18.85
2018-07-14T02:25:00.748Z,17.45
2018-07-14T02:26:04.269Z,13.72
2018-07-14T02:27:07.770Z,19.37
2018-07-14T02:28:11.434Z,15.98
2018-07-14T02:29:14.911Z,21.00
2018-07-14T02:30:18.449Z,15.70
2018-07-14T02:31:21.994Z,17.10
2018-07-14T02:32:25.511Z,18.67
2018-07-14T02:33:29.018Z,16.67
2018-07-14T02:34:32.511Z,18.82
2018-07-14T02:35:36.021Z,16.95
2018-07-14T02:36:39.557Z,15.78
2018-07-14T02:37:43.099Z,19.85
2018-07-14T02:38:46.611Z,22.25
2018-07-14T02:39:50.277Z,17.90
2018-07-14T02:40:54.054Z,17.00
2018-07-14T02:41:57.614Z,16.50
2018-07-14T02:43:01.167Z,16.77
2018-07-14T02:44:05.982Z,16.23
2018-07-14T02:45:09.471Z,16.00
2018-07-14T02:46:13.173Z,17.77
2018-07-14T02:47:17.221Z,15.60
2018-07-14T02:48:20.708Z,17.62
2018-07-14T02:49:24.326Z,17.98
2018-07-14T02:50:27.786Z,15.38
2018-07-14T02:51:31.387Z,17.05
2018-07-14T02:52:34.896Z,14.38
2018-07-14T02:53:38.419Z,16.65
2018-07-14T02:54:41.872Z,19.52
2018-07-14T02:55:45.350Z,18.77
2018-07-14T02:56:49.038Z,18.20
2018-07-14T02:57:52.580Z,17.73
2018-07-14T02:58:56.044Z,18.42
2018-07-14T02:59:59.543Z,16.90
2018-07-14T03:01:03.001Z,17.10
2018-07-14T03:02:06.555Z,20.10
2018-07-14T03:03:10.085Z,17.75
2018-07-14T03:04:13.728Z,17.48
2018-07-14T03:05:17.809Z,17.90
2018-07-14T03:06:21.386Z,18.48
2018-07-14T03:07:24.549Z,19.60
2018-07-14T03:08:28.054Z,23.00
2018-07-14T03:09:31.957Z,19.25
2018-07-14T03:10:35.490Z,17.42
2018-07-14T03:11:39.647Z,19.30
2018-07-14T03:12:43.149Z,18.92
2018-07-14T03:13:46.945Z,17.32
2018-07-14T03:14:50.554Z,18.57
2018-07-14T03:15:54.092Z,16.97
2018-07-14T03:16:57.553Z,19.70
2018-07-14T03:18:01.910Z,20.37
2018-07-14T03:19:05.409Z,17.95
2018-07-14T03:20:08.954Z,19.25
2018-07-14T03:21:12.718Z,20.60
2018-07-14T03:22:16.233Z,21.25
2018-07-14T03:23:19.727Z,20.68
2018-07-14T03:24:23.240Z,21.27
2018-07-14T03:25:27.294Z,17.00
2018-07-14T03:26:30.829Z,18.42
2018-07-14T03:27:34.283Z,23.95
2018-07-14T03:28:38.040Z,18.48
2018-07-14T03:29:41.617Z,21.60
2018-07-14T03:30:46.456Z,19.65
2018-07-14T03:31:49.950Z,17.32
2018-07-14T03:32:53.577Z,20.02
2018-07-14T03:33:57.061Z,17.65
2018-07-14T03:35:00.950Z,19.05
2018-07-14T03:36:05.148Z,20.55
2018-07-14T03:37:08.686Z,19.67
2018-07-14T03:38:12.343Z,21.23
2018-07-14T03:39:15.876Z,21.42
2018-07-14T03:40:19.419Z,18.90
2018-07-14T03:41:22.940Z,18.00
2018-07-14T03:42:26.470Z,22.45
2018-07-14T03:43:30.197Z,21.97
2018-07-14T03:44:33.830Z,19.07
2018-07-14T03:45:37.404Z,20.90
2018-07-14T03:46:40.932Z,21.05
2018-07-14T03:47:44.461Z,18.75
2018-07-14T03:48:48.612Z,22.40
2018-07-14T03:49:52.265Z,18.48
2018-07-14T03:50:55.753Z,21.00
2018-07-14T03:51:59.245Z,18.27
2018-07-14T03:53:02.787Z,20.25
2018-07-14T03:54:06.692Z,20.48
2018-07-14T03:55:10.319Z,18.85
2018-07-14T03:56:14.016Z,19.65
2018-07-14T03:57:17.525Z,19.30
2018-07-14T03:58:20.998Z,18.35
2018-07-14T03:59:24.145Z,18.92
2018-07-14T04:00:27.696Z,22.30
2018-07-14T04:01:31.323Z,18.07
2018-07-14T04:02:35.028Z,18.40
2018-07-14T04:03:38.493Z,17.48
2018-07-14T04:04:42.171Z,20.27
2018-07-14T04:05:45.766Z,20.65
2018-07-14T04:06:49.817Z,23.47
2018-07-14T04:07:53.372Z,18.82
2018-07-14T04:08:59.854Z,18.17
2018-07-14T04:10:03.854Z,14.60
2018-07-14T04:11:07.319Z,18.57
2018-07-14T04:12:10.859Z,21.73
2018-07-14T04:13:14.329Z,17.48
2018-07-14T04:14:17.784Z,18.82
2018-07-14T04:15:21.487Z,18.55
2018-07-14T04:16:25.048Z,17.23
2018-07-14T04:17:28.494Z,18.40
2018-07-14T04:18:31.963Z,19.37
2018-07-14T04:19:35.514Z,17.57
2018-07-14T04:20:39.095Z,16.67
2018-07-14T04:21:42.755Z,15.68
2018-07-14T04:22:46.286Z,17.82
2018-07-14T04:23:49.900Z,16.65
2018-07-14T04:24:53.417Z,16.77
2018-07-14T04:25:57.012Z,19.00
2018-07-14T04:27:00.641Z,15.18
2018-07-14T04:28:04.426Z,16.70
2018-07-14T04:29:07.962Z,17.62
2018-07-14T04:30:11.730Z,17.07
2018-07-14T04:31:15.345Z,18.37
2018-07-14T04:32:18.856Z,18.23
2018-07-14T04:33:22.470Z,17.40
2018-07-14T04:34:25.963Z,18.45
2018-07-14T04:35:30.096Z,16.85
2018-07-14T04:36:33.652Z,20.17
2018-07-14T04:37:37.328Z,16.23
2018-07-14T04:38:40.868Z,16.00
2018-07-14T04:39:44.394Z,15.43
2018-07-14T04:40:47.895Z,15.10
2018-07-14T04:41:51.462Z,15.40
2018-07-14T04:42:55.048Z,14.40
2018-07-14T04:43:58.655Z,15.18
2018-07-14T04:45:02.268Z,19.60
2018-07-14T04:46:06.183Z,15.30
2018-07-14T04:47:09.814Z,14.00
2018-07-14T04:48:13.435Z,14.03
2018-07-14T04:49:16.953Z,12.07
2018-07-14T04:50:21.456Z,14.60
2018-07-14T04:51:25.218Z,12.47
2018-07-14T04:52:28.837Z,12.47
2018-07-14T04:53:32.481Z,15.50
2018-07-14T04:54:36.150Z,15.98
2018-07-14T04:55:39.764Z,13.30
2018-07-14T04:56:43.376Z,11.80
2018-07-14T04:57:47.059Z,11.25
2018-07-14T04:58:51.496Z,14.65
2018-07-14T04:59:54.980Z,14.13
2018-07-14T05:00:58.514Z,11.38
2018-07-14T05:02:02.217Z,15.55
2018-07-14T05:03:05.989Z,12.35
2018-07-14T05:04:09.649Z,11.80
2018-07-14T05:05:13.446Z,12.35
2018-07-14T05:06:17.046Z,12.13
2018-07-14T05:07:20.199Z,11.73
2018-07-14T05:08:24.078Z,13.55
2018-07-14T05:09:27.902Z,12.58
2018-07-14T05:10:31.386Z,12.73
2018-07-14T05:11:34.834Z,11.88
2018-07-14T05:12:41.062Z,12.07
2018-07-14T05:13:44.711Z,10.63
2018-07-14T05:14:48.205Z,10.90
2018-07-14T05:15:51.884Z,13.50
2018-07-14T05:16:55.497Z,12.13
2018-07-14T05:17:59.027Z,10.55
2018-07-14T05:19:02.520Z,12.07
2018-07-14T05:20:07.011Z,10.88
2018-07-14T05:21:10.628Z,11.85
2018-07-14T05:22:14.873Z,8.30
2018-07-14T05:23:18.499Z,12.63
2018-07-14T05:24:22.013Z,11.97
2018-07-14T05:25:26.859Z,12.30
2018-07-14T05:26:30.560Z,11.63
2018-07-14T05:27:34.248Z,10.90
2018-07-14T05:28:37.751Z,11.97
2018-07-14T05:29:41.345Z,12.18
2018-07-14T05:30:45.472Z,10.32
2018-07-14T05:31:49.084Z,10.10
2018-07-14T05:32:52.619Z,11.10
2018-07-14T05:33:56.879Z,12.23
2018-07-14T05:35:00.363Z,9.85
2018-07-14T05:36:04.265Z,9.45
2018-07-14T05:37:08.193Z,12.25
2018-07-14T05:38:11.947Z,9.48
2018-07-14T05:39:15.452Z,9.20
2018-07-14T05:40:19.268Z,11.22
2018-07-14T05:41:22.921Z,11.22
2018-07-14T05:42:26.451Z,9.35
2018-07-14T05:43:29.908Z,8.53
2018-07-14T05:44:33.433Z,9.90
2018-07-14T05:45:37.216Z,10.53
2018-07-14T05:46:41.061Z,9.70
2018-07-14T05:47:44.692Z,10.25
2018-07-14T05:48:48.159Z,10.63
2018-07-14T05:49:51.639Z,12.88
2018-07-14T05:50:55.203Z,10.10
2018-07-14T05:51:59.030Z,9.48
2018-07-14T05:53:02.763Z,9.40
2018-07-14T05:54:06.415Z,9.15
2018-07-14T05:55:10.102Z,7.08
2018-07-14T05:56:14.106Z,10.53
2018-07-14T05:57:17.788Z,8.15
2018-07-14T05:58:21.277Z,10.78
2018-07-14T05:59:24.927Z,8.10
2018-07-14T06:00:28.457Z,13.00
2018-07-14T06:01:32.034Z,9.78
2018-07-14T06:02:35.988Z,9.93
2018-07-14T06:03:39.545Z,8.85
2018-07-14T06:04:43.070Z,8.75
2018-07-14T06:05:46.996Z,8.20
2018-07-14T06:06:50.510Z,9.55
2018-07-14T06:07:54.235Z,9.23
2018-07-14T06:08:57.784Z,9.38
2018-07-14T06:10:01.462Z,9.25
2018-07-14T06:11:05.369Z,9.03
2018-07-14T06:12:08.946Z,10.18
2018-07-14T06:13:12.912Z,8.58
2018-07-14T06:14:16.576Z,9.28
2018-07-14T06:15:20.118Z,10.58
2018-07-14T06:16:24.113Z,8.90
2018-07-14T06:17:27.734Z,7.60
2018-07-14T06:18:31.381Z,7.95
2018-07-14T06:19:34.949Z,11.38
2018-07-14T06:20:38.541Z,9.75
2018-07-14T06:21:42.054Z,7.35
2018-07-14T06:22:45.620Z,10.88
2018-07-14T06:23:49.277Z,10.13
2018-07-14T06:24:52.962Z,9.75
2018-07-14T06:25:56.526Z,10.65
2018-07-14T06:27:00.127Z,7.90
2018-07-14T06:28:03.874Z,7.87
2018-07-14T06:29:07.514Z,8.43
2018-07-14T06:30:11.612Z,10.58
2018-07-14T06:31:15.193Z,7.42
2018-07-14T06:32:18.899Z,8.23
2018-07-14T06:33:22.443Z,11.35
2018-07-14T06:34:25.988Z,10.78
2018-07-14T06:35:29.596Z,9.00
2018-07-14T06:36:34.428Z,8.30
2018-07-14T06:37:38.139Z,8.75
2018-07-14T06:38:41.788Z,9.53
2018-07-14T06:39:45.468Z,8.15
2018-07-14T06:40:49.297Z,8.48
2018-07-14T06:41:52.908Z,9.73
2018-07-14T06:42:56.554Z,7.65
2018-07-14T06:44:00.613Z,8.68
2018-07-14T06:45:04.396Z,10.53
2018-07-14T06:46:08.375Z,12.25
2018-07-14T06:47:13.261Z,6.67
2018-07-14T06:48:16.792Z,7.83
2018-07-14T06:49:21.281Z,9.45
2018-07-14T06:50:24.547Z,7.65
2018-07-14T06:51:28.270Z,9.00
2018-07-14T06:52:32.428Z,8.60
2018-07-14T06:53:35.972Z,9.23
2018-07-14T06:54:39.496Z,7.30
2018-07-14T06:55:43.896Z,6.03
2018-07-14T06:56:48.340Z,6.37
2018-07-14T06:57:52.028Z,6.97
2018-07-14T06:58:55.481Z,8.33
2018-07-14T06:59:59.150Z,6.90
2018-07-14T07:01:02.675Z,6.72
2018-07-14T07:02:06.537Z,9.83
2018-07-14T07:03:10.325Z,8.90
2018-07-14T07:04:13.895Z,10.18
2018-07-14T07:05:17.535Z,8.15
2018-07-14T07:06:21.424Z,7.58
2018-07-14T07:07:25.104Z,8.20
2018-07-14T07:08:28.735Z,9.33
2018-07-14T07:09:32.369Z,7.70
2018-07-14T07:10:36.020Z,8.35
2018-07-14T07:11:39.626Z,8.03
2018-07-14T07:12:43.253Z,8.10
2018-07-14T07:13:46.733Z,7.80
2018-07-14T07:14:50.239Z,7.53
2018-07-14T07:15:53.766Z,9.93
2018-07-14T07:16:57.360Z,7.50
2018-07-14T07:18:00.949Z,7.08
2018-07-14T07:19:04.689Z,11.00
2018-07-14T07:20:08.474Z,9.58
2018-07-14T07:21:12.264Z,8.95
2018-07-14T07:22:17.103Z,8.33
2018-07-14T07:23:20.778Z,7.28
2018-07-14T07:24:24.014Z,10.32
2018-07-14T07:25:27.687Z,8.08
2018-07-14T07:26:31.462Z,8.05
2018-07-14T07:27:35.091Z,7.58
2018-07-14T07:28:38.760Z,8.95
2018-07-14T07:29:42.473Z,6.92
2018-07-14T07:30:46.003Z,6.83
2018-07-14T07:31:49.573Z,6.47
2018-07-14T07:32:53.618Z,9.00
2018-07-14T07:33:57.455Z,9.55
2018-07-14T07:35:01.015Z,7.28
2018-07-14T07:36:06.015Z,8.73
2018-07-14T07:37:09.810Z,8.05
2018-07-14T07:38:14.073Z,7.95
2018-07-14T07:39:17.709Z,8.18
2018-07-14T07:40:20.958Z,8.65
2018-07-14T07:41:24.528Z,9.00
2018-07-14T07:42:28.191Z,9.75
2018-07-14T07:43:31.742Z,8.80
2018-07-14T07:44:35.345Z,7.05
2018-07-14T07:45:39.613Z,8.13
2018-07-14T07:46:43.588Z,6.22
2018-07-14T07:47:47.200Z,7.65
2018-07-14T07:48:50.851Z,7.60
2018-07-14T07:49:54.436Z,10.80
2018-07-14T07:50:58.052Z,8.83
2018-07-14T07:52:01.578Z,9.03
2018-07-14T07:53:05.997Z,6.50
2018-07-14T07:54:09.780Z,7.72
2018-07-14T07:55:13.491Z,5.72
2018-07-14T07:56:16.989Z,6.22
2018-07-14T07:57:20.242Z,7.72
2018-07-14T07:58:23.854Z,10.75
2018-07-14T07:59:27.675Z,8.65
2018-07-14T08:00:31.263Z,7.47
2018-07-14T08:01:35.486Z,9.28
2018-07-14T08:02:39.020Z,8.10
2018-07-14T08:03:42.804Z,8.98
2018-07-14T08:04:46.316Z,7.28
2018-07-14T08:05:50.232Z,6.58
2018-07-14T08:06:53.862Z,8.38
2018-07-14T08:07:57.403Z,4.72
2018-07-14T08:09:00.615Z,6.78
2018-07-14T08:10:04.307Z,7.95
2018-07-14T08:11:08.060Z,6.25
2018-07-14T08:12:11.940Z,4.70
2018-07-14T08:13:15.562Z,6.42
2018-07-14T08:14:19.332Z,7.75
2018-07-14T08:15:22.836Z,6.53
2018-07-14T08:16:26.537Z,6.55
2018-07-14T08:17:30.471Z,6.28
2018-07-14T08:18:34.711Z,6.85
2018-07-14T08:19:38.598Z,8.50
2018-07-14T08:20:42.713Z,9.80
2018-07-14T08:21:46.251Z,6.75
2018-07-14T08:22:49.551Z,8.35
2018-07-14T08:23:53.035Z,5.87
2018-07-14T08:24:56.714Z,5.35
2018-07-14T08:26:00.535Z,6.80
2018-07-14T08:27:04.169Z,6.70
2018-07-14T08:28:08.000Z,7.78
2018-07-14T08:29:11.759Z,5.28
2018-07-14T08:30:15.563Z,6.75
2018-07-14T08:31:19.173Z,6.95
2018-07-14T08:32:23.407Z,5.33
2018-07-14T08:33:27.481Z,5.65
2018-07-14T08:34:31.114Z,5.08
2018-07-14T08:35:36.361Z,6.67
2018-07-14T08:36:40.346Z,8.88
2018-07-14T08:37:44.791Z,8.45
2018-07-14T08:38:48.463Z,5.70
2018-07-14T08:39:52.187Z,4.15
2018-07-14T08:40:55.480Z,7.40
2018-07-14T08:42:00.226Z,7.25
2018-07-14T08:43:04.356Z,6.40
2018-07-14T08:44:08.344Z,6.72
2018-07-14T08:45:12.422Z,6.30
2018-07-14T08:46:16.199Z,9.43
2018-07-14T08:47:19.839Z,7.92
2018-07-14T08:48:23.422Z,8.83
2018-07-14T08:49:27.083Z,5.65
2018-07-14T08:50:30.603Z,7.87
2018-07-14T08:51:34.182Z,7.55
2018-07-14T08:52:38.398Z,5.42
2018-07-14T08:53:42.041Z,8.75
2018-07-14T08:54:45.669Z,5.58
2018-07-14T08:55:49.329Z,7.42
2018-07-14T08:56:54.079Z,7.47
2018-07-14T08:57:57.695Z,7.12
2018-07-14T08:59:01.258Z,6.97
2018-07-14T09:00:05.075Z,7.12
2018-07-14T09:01:08.636Z,9.65
2018-07-14T09:02:13.511Z,7.30
2018-07-14T09:03:17.142Z,6.90
2018-07-14T09:04:20.823Z,7.55
2018-07-14T09:05:24.433Z,7.55
2018-07-14T09:06:28.574Z,8.10
2018-07-14T09:07:32.181Z,6.65
2018-07-14T09:08:35.727Z,9.80
2018-07-14T09:09:39.628Z,6.87
2018-07-14T09:10:43.733Z,9.15
2018-07-14T09:11:47.459Z,6.45
2018-07-14T09:12:51.024Z,6.72
2018-07-14T09:13:54.717Z,7.03
2018-07-14T09:14:58.388Z,7.25
2018-07-14T09:16:02.986Z,5.90
2018-07-14T09:17:06.627Z,7.55
2018-07-14T09:18:10.741Z,6.33
2018-07-14T09:19:15.279Z,6.50
2018-07-14T09:20:19.811Z,5.62
2018-07-14T09:21:23.344Z,7.08
2018-07-14T09:22:26.950Z,8.60
2018-07-14T09:23:30.890Z,9.08
2018-07-14T09:24:34.969Z,5.58
2018-07-14T09:25:38.789Z,7.72
2018-07-14T09:26:42.374Z,7.25
2018-07-14T09:27:46.009Z,6.33
2018-07-14T09:28:49.717Z,7.67
2018-07-14T09:29:53.297Z,7.28
2018-07-14T09:30:57.469Z,6.72
2018-07-14T09:32:01.028Z,7.45
2018-07-14T09:33:04.595Z,6.78
2018-07-14T09:34:09.454Z,6.15
2018-07-14T09:35:13.972Z,8.35
2018-07-14T09:36:17.999Z,8.85
2018-07-14T09:37:21.732Z,7.30
2018-07-14T09:38:24.950Z,7.53
2018-07-14T09:39:28.844Z,6.97
2018-07-14T09:40:32.466Z,6.08
2018-07-14T09:41:36.494Z,5.47
2018-07-14T09:42:39.695Z,7.22
2018-07-14T09:43:43.428Z,5.67
2018-07-14T09:44:47.353Z,7.12
2018-07-14T09:45:51.054Z,8.05
2018-07-14T09:46:55.348Z,8.35
2018-07-14T09:47:58.930Z,6.85
2018-07-14T09:49:02.947Z,7.03
2018-07-14T09:50:06.634Z,6.55
2018-07-14T09:51:55.251Z,7.65
2018-07-14T09:53:21.258Z,5.22
2018-07-14T09:54:24.936Z,10.18
2018-07-14T09:55:28.989Z,5.90
2018-07-14T09:56:32.556Z,5.40
2018-07-14T09:57:36.127Z,7.80
2018-07-14T09:58:39.679Z,7.17
2018-07-14T09:59:43.392Z,7.03
2018-07-14T10:00:52.259Z,7.22
2018-07-14T10:01:55.985Z,6.05
2018-07-14T10:03:00.083Z,7.72
2018-07-14T10:04:03.724Z,5.90
2018-07-14T10:05:07.476Z,9.35
2018-07-14T10:06:11.471Z,7.28
2018-07-14T10:07:15.506Z,5.25
2018-07-14T10:08:19.356Z,6.90
2018-07-14T10:09:23.027Z,6.87
2018-07-14T10:10:26.637Z,8.28
2018-07-14T10:11:30.988Z,8.93
2018-07-14T10:12:34.579Z,7.25
2018-07-14T10:13:38.476Z,5.37
2018-07-14T10:14:42.006Z,6.55
2018-07-14T10:15:45.676Z,5.05
2018-07-14T10:16:49.377Z,8.48
2018-07-14T10:17:53.316Z,8.13
2018-07-14T10:18:57.827Z,8.08
2018-07-14T10:20:01.684Z,8.25
2018-07-14T10:21:05.568Z,8.15
2018-07-14T10:22:09.353Z,6.10
2018-07-14T10:23:12.966Z,9.48
2018-07-14T10:24:16.883Z,6.58
2018-07-14T10:25:20.895Z,8.70
2018-07-14T10:26:24.433Z,7.50
2018-07-14T10:27:28.018Z,5.58
2018-07-14T10:28:31.796Z,8.75
2018-07-14T10:29:35.459Z,9.15
2018-07-14T10:30:39.945Z,7.85
2018-07-14T10:31:43.648Z,7.53
2018-07-14T10:32:47.488Z,7.20
2018-07-14T10:33:52.283Z,7.22
2018-07-14T10:34:56.137Z,8.93
2018-07-14T10:35:59.619Z,7.03
2018-07-14T10:37:03.712Z,7.78
2018-07-14T10:38:07.589Z,8.25
2018-07-14T10:39:11.333Z,7.78
2018-07-14T10:40:16.187Z,9.88
2018-07-14T10:41:19.842Z,7.33
2018-07-14T10:42:23.464Z,7.28
2018-07-14T10:43:27.093Z,8.03
2018-07-14T10:44:30.633Z,7.75
2018-07-14T10:45:34.269Z,8.03
2018-07-14T10:46:37.780Z,11.10
2018-07-14T10:47:41.494Z,7.75
2018-07-14T10:48:45.089Z,8.68
2018-07-14T10:49:48.819Z,6.85
2018-07-14T10:50:52.484Z,7.72
2018-07-14T10:51:56.068Z,8.00
2018-07-14T10:52:59.868Z,8.13
2018-07-14T10:54:03.539Z,9.33
2018-07-14T10:55:07.493Z,10.72
2018-07-14T10:56:11.373Z,10.53
2018-07-14T10:57:14.999Z,8.70
2018-07-14T10:58:18.783Z,7.90
2018-07-14T10:59:22.705Z,10.23
2018-07-14T11:00:26.352Z,10.40
2018-07-14T11:01:30.873Z,12.00
2018-07-14T11:02:35.297Z,9.83
2018-07-14T11:03:38.852Z,9.08
2018-07-14T11:04:42.777Z,11.70
2018-07-14T11:05:46.911Z,9.38
2018-07-14T11:06:50.464Z,11.10
2018-07-14T11:07:53.615Z,9.68
2018-07-14T11:08:57.502Z,8.45
2018-07-14T11:10:01.051Z,7.25
2018-07-14T11:11:04.626Z,8.68
2018-07-14T11:12:09.344Z,10.48
2018-07-14T11:13:13.076Z,10.58
2018-07-14T11:14:16.841Z,10.75
2018-07-14T11:15:20.341Z,10.65
2018-07-14T11:16:23.939Z,11.57
2018-07-14T11:17:27.714Z,10.68
2018-07-14T11:18:32.080Z,8.28
2018-07-14T11:19:36.434Z,8.20
2018-07-14T11:20:46.601Z,8.98
2018-07-14T11:21:50.217Z,9.65
2018-07-14T11:22:54.044Z,7.65
2018-07-14T11:23:57.374Z,11.38
2018-07-14T11:25:00.972Z,10.95
2018-07-14T11:26:04.881Z,9.28
2018-07-14T11:27:08.483Z,8.43
2018-07-14T11:28:12.600Z,9.98
2018-07-14T11:29:16.365Z,11.08
2018-07-14T11:30:20.145Z,14.35
2018-07-14T11:31:24.267Z,13.58
2018-07-14T11:32:27.878Z,11.03
2018-07-14T11:33:32.489Z,10.63
2018-07-14T11:34:36.236Z,9.95
2018-07-14T11:35:40.068Z,10.20
2018-07-14T11:36:43.637Z,9.78
2018-07-14T11:37:47.855Z,12.75
2018-07-14T11:38:51.333Z,9.68
2018-07-14T11:40:01.539Z,8.88
2018-07-14T11:41:05.164Z,9.50
2018-07-14T11:42:08.760Z,10.43
2018-07-14T11:43:12.953Z,9.70
2018-07-14T11:44:16.787Z,9.30
2018-07-14T11:45:19.966Z,11.93
2018-07-14T11:46:23.543Z,13.35
2018-07-14T11:47:27.120Z,11.00
2018-07-14T11:48:30.807Z,11.15
2018-07-14T11:49:34.370Z,9.28
2018-07-14T11:50:38.264Z,10.55
2018-07-14T11:51:41.820Z,12.88
2018-07-14T11:52:45.376Z,11.08
2018-07-14T11:53:49.617Z,13.68
2018-07-14T11:54:53.626Z,9.40
2018-07-14T11:55:57.325Z,11.93
2018-07-14T11:57:01.001Z,11.60
2018-07-14T11:58:05.191Z,11.25
2018-07-14T11:59:08.840Z,9.28
2018-07-14T12:00:12.913Z,11.20
2018-07-14T12:01:16.529Z,8.80
2018-07-14T12:02:21.239Z,9.60
2018-07-14T12:03:24.967Z,10.10
2018-07-14T12:04:29.220Z,7.70
2018-07-14T12:05:33.785Z,13.98
2018-07-14T12:06:37.491Z,10.75
2018-07-14T12:07:41.075Z,9.48
2018-07-14T12:08:44.705Z,9.60
2018-07-14T12:09:48.481Z,8.98
2018-07-14T12:10:52.292Z,10.90
2018-07-14T12:11:55.891Z,10.10
2018-07-14T12:12:59.404Z,12.45
2018-07-14T12:14:03.175Z,7.72
2018-07-14T12:15:06.935Z,11.18
2018-07-14T12:16:11.200Z,10.15
2018-07-14T12:17:15.017Z,9.88
2018-07-14T12:18:18.528Z,9.08
2018-07-14T12:19:22.104Z,7.37
2018-07-14T12:20:26.198Z,9.48
2018-07-14T12:21:30.421Z,11.00
2018-07-14T12:22:34.028Z,8.48
2018-07-14T12:23:37.543Z,8.05
2018-07-14T12:24:41.236Z,7.53
2018-07-14T12:25:44.454Z,8.15
2018-07-14T12:26:48.329Z,9.13
2018-07-14T12:27:53.062Z,9.98
2018-07-14T12:28:57.317Z,10.23
2018-07-14T12:30:01.663Z,8.23
2018-07-14T12:31:05.325Z,7.87
2018-07-14T12:32:09.463Z,5.75
2018-07-14T12:33:14.658Z,7.92
2018-07-14T12:34:18.371Z,9.60
2018-07-14T12:35:21.987Z,7.92
2018-07-14T12:36:25.653Z,7.53
2018-07-14T12:37:29.336Z,6.58
2018-07-14T12:38:33.961Z,6.92
2018-07-14T12:39:37.581Z,8.98
2018-07-14T12:40:41.903Z,6.40
2018-07-14T12:41:45.507Z,6.92
2018-07-14T12:42:49.284Z,6.28
2018-07-14T12:43:53.494Z,6.97
2018-07-14T12:44:57.123Z,7.12
2018-07-14T12:46:00.799Z,8.98
2018-07-14T12:47:04.882Z,6.42
2018-07-14T12:48:09.010Z,7.12
2018-07-14T12:49:13.427Z,6.55
2018-07-14T12:50:17.482Z,6.10
2018-07-14T12:51:23.840Z,8.65
2018-07-14T12:52:29.946Z,6.08
2018-07-14T12:53:34.634Z,6.58
2018-07-14T12:54:38.328Z,6.17
2018-07-14T12:55:42.126Z,8.58
2018-07-14T12:56:45.828Z,7.78
2018-07-14T12:57:49.514Z,9.30
2018-07-14T12:58:53.145Z,6.70
2018-07-14T12:59:58.125Z,8.03
2018-07-14T13:01:02.276Z,9.28
2018-07-14T13:02:06.252Z,6.75
2018-07-14T13:03:11.088Z,7.83
2018-07-14T13:04:14.938Z,6.15
2018-07-14T13:05:18.678Z,7.10
2018-07-14T13:06:23.069Z,5.12
2018-07-14T13:07:27.060Z,5.10
2018-07-14T13:08:30.837Z,5.10
2018-07-14T13:09:34.561Z,7.33
2018-07-14T13:10:38.216Z,6.40
2018-07-14T13:11:41.898Z,7.35
2018-07-14T13:12:45.499Z,6.85
2018-07-14T13:13:49.137Z,3.95
2018-07-14T13:14:52.701Z,5.75
2018-07-14T13:15:56.377Z,5.00
2018-07-14T13:16:59.867Z,4.67
2018-07-14T13:18:03.668Z,8.40
2018-07-14T13:19:07.764Z,4.55
2018-07-14T13:20:11.456Z,4.45
2018-07-14T13:21:15.809Z,5.60
2018-07-14T13:22:20.115Z,4.45
2018-07-14T13:23:23.873Z,3.92
2018-07-14T13:24:27.447Z,3.87
2018-07-14T13:25:31.779Z,3.85
2018-07-14T13:26:35.707Z,5.30
2018-07-14T13:27:39.859Z,7.22
2018-07-14T13:28:45.243Z,9.08
2018-07-14T13:29:48.761Z,5.10
2018-07-14T13:30:52.712Z,6.17
2018-07-14T13:31:56.539Z,5.30
2018-07-14T13:33:00.101Z,4.53
2018-07-14T13:34:04.336Z,5.37
2018-07-14T13:35:07.856Z,4.97
2018-07-14T13:36:12.135Z,4.65
2018-07-14T13:37:15.937Z,4.40
2018-07-14T13:38:20.012Z,4.55
2018-07-14T13:39:24.897Z,4.75
2018-07-14T13:40:28.746Z,4.15
2018-07-14T13:41:32.278Z,4.53
2018-07-14T13:42:35.775Z,4.50
2018-07-14T13:43:39.436Z,7.25
2018-07-14T13:44:43.090Z,5.92
2018-07-14T13:45:46.709Z,4.33
2018-07-14T13:46:50.426Z,4.20
2018-07-14T13:47:54.222Z,5.40
2018-07-14T13:48:57.903Z,5.17
2018-07-14T13:50:02.065Z,4.80
2018-07-14T13:51:05.654Z,4.75
2018-07-14T13:52:09.277Z,4.17
2018-07-14T13:53:13.010Z,5.08
2018-07-14T13:54:16.881Z,5.60
2018-07-14T13:55:21.033Z,5.42
2018-07-14T13:56:24.790Z,5.00